Sitia, Greece

6:40 AM EEST on September 02, 2014 (GMT +0300)
Nikos Kazantzakis | Change Station
CLOSE
Current Station
Airport
Location: Heraklion,
Elevation: 128 ft
Nearby Weather Stations

Elev 128 ft 35.34 °N, 25.17 °E | Updated 20 minutes ago

Partly Cloudy
Partly Cloudy
70 °F
Feels Like 70 °F
N
7
Wind Variable Wind from South

Today
High -- | Low -- °F
--% Chance of Precip.
Yesterday
High -- | Low -- °F
Precip. -- in
6:48 AM 7:41 PM
Waxing Crescent, 47% visible
Pressure 29.74 in
Visibility 6.2 miles
Clouds Few 2500 ft
Dew Point 63 °F
Humidity 78%
Rainfall 0.00 in
Snow Depth Not available.
UV 0 out of 12
Pollen Not available.
Air Quality Not available.
Flu Activity Not available.
METAR LGIR 020320Z 18006KT 9999 FEW025 21/17 Q1007 NOSIG

More Conditions Fewer Conditions

Pressure 29.74 in
Visibility 6.2 miles
Clouds Few 2500 ft
Dew Point 63 °F
Humidity 78%
Rainfall 0.00 in
Snow Depth Not available.
UV 0 out of 12
Pollen Not available.
Air Quality Not available.
Flu Activity Not available.
METAR LGIR 020320Z 18006KT 9999 FEW025 21/17 Q1007 NOSIG

More Conditions Fewer Conditions

10-Day Weather Forecast

Almanac

Astronomy

Sep. 02, 2014 Rise Set
Actual Time 6:48 AM EEST 7:41 PM EEST
Civil Twilight 6:22 AM EEST 8:07 PM EEST
Nautical Twilight 5:52 AM EEST 8:37 PM EEST
Astronomical Twilight 5:20 AM EEST 9:09 PM EEST
Moon 1:58 PM EEST No Moon Set
Length of Visible Light 13h 44m
Length of Day
12h 52m
Tomorrow will be 2m 8s shorter.
Waxing Crescent, 47% of the Moon is Illuminated
Sep 1
Waxing Crescent
Sep 2
First Quarter
Sep 8
Full
Sep 15
Last Quarter
Sep 24
New

Yesterday's Extremes

Country Highs Country Lows

Community

WunderPhotos

Upload Photos

1,749,557 photos uploaded!

WunderBlogs® & News

Nearby

Snow Depth

Not available.

Earthquake Activity

City Distance Mag. Time & Date
No recent earthquake activity has been reported nearby.
Minimum magnitude displayed is 2.5.

Coastal Water Temperatures

Place Temperature
No Stations Reporting

Nearby Weather Stations